Time;durP1;ratioP1;P1;durP2;ratioP2;P2;SDS_P1;SDS_P2;PMS_P1;PMS_P2;Temp;Humidity;BMP_temperature;BMP_pressure;BME280_temperature;BME280_humidity;BME280_pressure;Samples;Min_cycle;Max_cycle;Signal;HPM_P1;HPM_P2
2022/06/18 00:01:44;;;;;;;13.20;4.25;;;;;;;15.66;100.00;99442.47;4443990;32;20064;-73
2022/06/18 00:04:16;;;;;;;11.93;4.75;;;;;;;15.93;100.00;99431.31;4458535;32;20092;-72
2022/06/18 00:06:57;;;;;;;7.80;4.47;;;;;;;15.97;100.00;99438.63;4457676;32;20060;-72
2022/06/18 00:09:34;;;;;;;8.50;4.50;;;;;;;15.62;100.00;99402.28;4460205;32;20175;-71
2022/06/18 00:14:58;;;;;;;8.05;3.40;;;;;;;15.88;100.00;99426.72;4454409;32;20089;-72
2022/06/18 00:17:24;;;;;;;8.57;4.47;;;;;;;15.84;100.00;99422.91;4453662;32;20146;-72
2022/06/18 00:19:50;;;;;;;9.15;4.43;;;;;;;15.58;100.00;99414.78;4442690;32;20148;-72
2022/06/18 00:22:19;;;;;;;12.95;4.05;;;;;;;15.62;100.00;99415.88;4443646;32;20054;-73
2022/06/18 00:24:45;;;;;;;10.38;4.07;;;;;;;15.55;100.00;99420.75;4449690;32;20071;-72
2022/06/18 00:27:16;;;;;;;5.62;3.83;;;;;;;15.51;100.00;99387.12;4459732;32;20447;-72
2022/06/18 00:29:44;;;;;;;37.72;5.18;;;;;;;15.41;100.00;99378.97;4458797;32;20046;-72
2022/06/18 00:32:10;;;;;;;6.10;3.45;;;;;;;15.48;100.00;99406.66;4459877;32;20068;-73
2022/06/18 00:34:36;;;;;;;9.43;4.20;;;;;;;15.62;100.00;99410.44;4458165;32;20050;-72
2022/06/18 00:37:04;;;;;;;5.07;4.15;;;;;;;15.83;100.00;99405.00;4458718;32;20089;-73
2022/06/18 00:39:30;;;;;;;7.85;3.75;;;;;;;15.60;100.00;99401.75;4457136;32;20180;-73
2022/06/18 00:42:03;;;;;;;8.15;4.57;;;;;;;15.29;100.00;99378.47;4452547;32;20146;-73
2022/06/18 00:47:24;;;;;;;8.18;4.12;;;;;;;15.58;100.00;99420.19;4444100;32;20079;-72
2022/06/18 00:50:18;;;;;;;11.60;4.10;;;;;;;15.53;100.00;99406.66;4444609;32;20046;-73
2022/06/18 00:52:50;;;;;;;6.85;4.40;;;;;;;15.53;100.00;99408.56;4442176;32;20042;-72
2022/06/18 00:55:31;;;;;;;6.60;4.12;;;;;;;15.53;100.00;99412.06;4446390;32;20112;-73
2022/06/18 00:58:06;;;;;;;10.18;4.28;;;;;;;15.31;100.00;99392.56;4443938;32;20659;-73
2022/06/18 01:00:34;;;;;;;7.35;3.95;;;;;;;15.43;100.00;99417.53;4444249;32;20184;-73
2022/06/18 01:03:00;;;;;;;4.82;3.47;;;;;;;15.28;100.00;99387.66;4452293;32;20068;-73
2022/06/18 01:05:33;;;;;;;4.50;3.80;;;;;;;15.38;100.00;99410.19;4457671;32;21004;-72
2022/06/18 01:08:03;;;;;;;4.53;3.40;;;;;;;15.19;100.00;99407.22;4455938;32;20097;-72
2022/06/18 01:10:41;;;;;;;8.75;4.12;;;;;;;14.89;100.00;99376.28;4458139;32;20050;-72
2022/06/18 01:13:12;;;;;;;7.35;3.80;;;;;;;14.85;100.00;99380.62;4459465;32;20083;-72
2022/06/18 01:15:40;;;;;;;6.90;3.97;;;;;;;14.83;100.00;99377.34;4458332;32;20166;-72
2022/06/18 01:18:07;;;;;;;10.73;4.30;;;;;;;14.87;100.00;99400.13;4455755;32;20141;-73
2022/06/18 01:20:42;;;;;;;8.20;4.22;;;;;;;14.71;100.00;99368.66;4460934;32;20045;-73
2022/06/18 01:23:19;;;;;;;8.35;4.00;;;;;;;14.79;100.00;99375.44;4447909;32;20502;-72
2022/06/18 01:25:47;;;;;;;7.62;3.85;;;;;;;14.88;100.00;99399.03;4462156;32;20049;-72
2022/06/18 01:28:16;;;;;;;6.32;4.15;;;;;;;14.81;100.00;99395.78;4458115;32;20160;-73
2022/06/18 01:30:44;;;;;;;12.93;4.20;;;;;;;14.83;100.00;99390.09;4446688;32;20042;-73
2022/06/18 01:33:12;;;;;;;6.57;4.07;;;;;;;14.93;100.00;99397.41;4452029;32;20070;-73
2022/06/18 01:35:42;;;;;;;6.57;4.35;;;;;;;14.77;100.00;99356.72;4462268;32;20068;-73
2022/06/18 01:38:11;;;;;;;10.38;4.45;;;;;;;14.64;100.00;99357.25;4460974;32;20053;-73
2022/06/18 01:40:52;;;;;;;6.43;4.55;;;;;;;14.77;100.00;99375.69;4459997;32;20068;-73
2022/06/18 01:43:20;;;;;;;9.65;4.53;;;;;;;14.90;100.00;99382.50;4446017;32;20121;-72
2022/06/18 01:45:54;;;;;;;13.73;6.25;;;;;;;14.86;100.00;99379.50;4446629;32;20050;-72
2022/06/18 01:48:25;;;;;;;13.07;5.45;;;;;;;14.88;100.00;99379.25;4444915;32;20054;-73
2022/06/18 01:50:59;;;;;;;;;;;;;;;14.88;100.00;99380.06;4462847;32;20089;-72
2022/06/18 01:53:30;;;;;;;6.30;4.60;;;;;;;14.88;100.00;99380.06;4453740;32;20386;-74
2022/06/18 01:56:06;;;;;;;5.78;4.18;;;;;;;14.85;100.00;99369.78;4453806;32;20057;-73
2022/06/18 01:58:41;;;;;;;12.60;4.45;;;;;;;15.01;100.00;99372.47;4444778;32;20050;-72
2022/06/18 02:01:17;;;;;;;12.50;4.50;;;;;;;14.81;100.00;99347.00;4449255;32;20507;-72
2022/06/18 02:03:44;;;;;;;11.95;5.05;;;;;;;15.06;100.00;99375.19;4460818;32;20041;-72
2022/06/18 02:06:10;;;;;;;4.75;3.92;;;;;;;15.14;100.00;99371.97;4460082;32;20041;-72
2022/06/18 02:08:37;;;;;;;11.48;4.53;;;;;;;15.20;100.00;99376.28;4461277;32;20063;-73
2022/06/18 02:11:06;;;;;;;8.35;4.15;;;;;;;15.19;100.00;99365.69;4461166;32;20243;-72
2022/06/18 02:13:47;;;;;;;6.60;3.95;;;;;;;15.06;100.00;99353.50;4458959;32;20053;-73
2022/06/18 02:16:17;;;;;;;11.38;4.35;;;;;;;15.06;100.00;99358.91;4456310;32;20071;-73
2022/06/18 02:18:46;;;;;;;7.80;4.32;;;;;;;15.04;100.00;99361.09;4453223;32;20409;-73
2022/06/18 02:21:19;;;;;;;8.93;3.75;;;;;;;15.03;100.00;99359.44;4445481;32;20482;-72
2022/06/18 02:23:46;;;;;;;7.65;4.20;;;;;;;15.05;100.00;99357.31;4447449;32;20064;-73
2022/06/18 02:26:12;;;;;;;12.63;4.15;;;;;;;14.83;100.00;99323.13;4447916;32;20053;-72
2022/06/18 02:28:43;;;;;;;6.78;4.28;;;;;;;14.83;100.00;99316.91;4456081;32;20786;-72
2022/06/18 02:31:17;;;;;;;9.70;4.87;;;;;;;14.88;100.00;99325.03;4461673;32;20085;-72
2022/06/18 02:33:47;;;;;;;10.98;5.10;;;;;;;15.06;100.00;99348.91;4460482;32;20113;-72
2022/06/18 02:36:35;;;;;;;5.37;4.12;;;;;;;15.01;100.00;99350.78;4450300;32;20068;-72
2022/06/18 02:39:06;;;;;;;7.87;4.93;;;;;;;15.04;100.00;99355.66;4453662;32;20065;-72
2022/06/18 02:41:33;;;;;;;9.55;4.68;;;;;;;14.84;100.00;99329.38;4461509;32;20053;-72
2022/06/18 02:44:00;;;;;;;8.23;4.10;;;;;;;14.75;100.00;99320.97;4453992;32;20049;-72
2022/06/18 02:46:27;;;;;;;8.13;4.18;;;;;;;14.84;100.00;99362.72;4453033;32;20519;-71
2022/06/18 02:48:53;;;;;;;6.40;4.53;;;;;;;14.88;100.00;99358.38;4461680;32;20053;-72
2022/06/18 02:51:19;;;;;;;10.65;5.25;;;;;;;14.85;100.00;99361.63;4461391;32;20111;-72
2022/06/18 02:53:46;;;;;;;12.77;5.07;;;;;;;14.78;100.00;99342.09;4461163;32;20037;-72
2022/06/18 02:56:14;;;;;;;6.18;3.97;;;;;;;14.77;100.00;99354.03;4449836;32;20061;-73
2022/06/18 02:58:45;;;;;;;8.02;4.60;;;;;;;14.70;100.00;99367.84;4445552;32;20045;-72
2022/06/18 03:01:17;;;;;;;10.40;5.07;;;;;;;14.54;100.00;99366.97;4445641;32;20129;-71
2022/06/18 03:03:47;;;;;;;13.90;4.82;;;;;;;14.66;100.00;99365.94;4451662;32;20111;-72
2022/06/18 03:06:15;;;;;;;9.50;4.90;;;;;;;14.56;100.00;99368.59;4458410;32;20082;-73
2022/06/18 03:08:41;;;;;;;8.90;4.60;;;;;;;14.49;100.00;99345.28;4460765;32;20067;-73
2022/06/18 03:13:56;;;;;;;9.40;4.82;;;;;;;14.59;100.00;99362.66;4450002;32;20071;-73
2022/06/18 03:16:24;;;;;;;12.48;5.05;;;;;;;14.70;100.00;99377.88;4459740;32;20046;-71
2022/06/18 03:18:54;;;;;;;7.25;5.05;;;;;;;14.72;100.00;99375.69;4452222;32;20098;-72
2022/06/18 03:21:26;;;;;;;8.18;5.47;;;;;;;14.79;100.00;99365.44;4445507;32;20053;-71
2022/06/18 03:23:53;;;;;;;6.80;5.00;;;;;;;14.63;100.00;99372.72;4442052;32;20373;-72
2022/06/18 03:26:20;;;;;;;6.78;4.55;;;;;;;14.48;100.00;99343.66;4444760;32;20165;-71
2022/06/18 03:28:49;;;;;;;13.38;5.05;;;;;;;14.49;100.00;99345.28;4444502;32;20054;-74
2022/06/18 03:31:15;;;;;;;9.43;5.25;;;;;;;14.74;100.00;99378.16;4444026;32;20644;-72
2022/06/18 03:33:41;;;;;;;8.13;4.62;;;;;;;14.75;100.00;99374.38;4450848;32;20069;-71
2022/06/18 03:36:10;;;;;;;7.05;4.47;;;;;;;14.87;100.00;99378.44;4451639;32;20045;-72
2022/06/18 03:38:37;;;;;;;7.62;4.68;;;;;;;14.92;100.00;99384.94;4459037;32;20054;-71
2022/06/18 03:41:03;;;;;;;10.45;5.40;;;;;;;14.88;100.00;99380.06;4444781;32;20091;-72
2022/06/18 03:43:30;;;;;;;10.90;4.62;;;;;;;14.64;100.00;99341.00;4442698;32;20619;-72
2022/06/18 03:46:00;;;;;;;10.50;5.50;;;;;;;14.88;100.00;99373.81;4456423;32;20180;-71
2022/06/18 03:48:48;;;;;;;9.32;4.65;;;;;;;14.88;100.00;99374.63;4459514;32;20072;-71
2022/06/18 03:51:16;;;;;;;6.55;4.40;;;;;;;14.98;100.00;99368.44;4460265;32;20069;-72
2022/06/18 03:53:42;;;;;;;11.20;5.20;;;;;;;14.79;100.00;99330.19;4459994;32;20037;-72
2022/06/18 03:56:13;;;;;;;9.25;4.32;;;;;;;15.08;100.00;99362.19;4456863;32;20064;-72
2022/06/18 03:58:42;;;;;;;10.05;4.65;;;;;;;15.13;100.00;99364.09;4459729;32;20068;-72
2022/06/18 04:01:10;;;;;;;16.77;4.82;;;;;;;15.03;100.00;99359.44;4445794;32;20042;-71
2022/06/18 04:03:37;;;;;;;15.32;4.85;;;;;;;15.07;100.00;99338.84;4445254;32;20061;-72
2022/06/18 04:06:04;;;;;;;9.70;4.55;;;;;;;15.14;100.00;99352.97;4456291;32;20050;-72
2022/06/18 04:08:31;;;;;;;8.48;5.10;;;;;;;15.20;100.00;99349.16;4460168;32;20096;-72
2022/06/18 04:10:58;;;;;;;6.20;4.37;;;;;;;15.29;100.00;99352.13;4457773;32;20073;-72
2022/06/18 04:13:24;;;;;;;15.30;4.78;;;;;;;15.36;100.00;99343.72;4444457;32;20063;-71
2022/06/18 04:15:50;;;;;;;7.80;4.07;;;;;;;15.32;100.00;99346.16;4443478;32;20445;-71
2022/06/18 04:18:17;;;;;;;14.20;4.32;;;;;;;15.31;100.00;99327.44;4444572;32;20045;-72
2022/06/18 04:20:43;;;;;;;6.18;4.43;;;;;;;15.55;100.00;99354.81;4444875;32;20046;-72
2022/06/18 04:23:11;;;;;;;4.93;3.62;;;;;;;15.60;100.00;99347.47;4448459;32;20088;-73
2022/06/18 04:25:38;;;;;;;9.52;4.68;;;;;;;15.80;100.00;99345.81;4453255;32;20053;-73
2022/06/18 04:28:04;;;;;;;6.70;3.62;;;;;;;15.93;100.00;99345.22;4442655;32;20177;-73
2022/06/18 04:30:33;;;;;;;6.47;3.92;;;;;;;16.02;100.00;99350.06;4443005;32;20069;-73
2022/06/18 04:32:59;;;;;;;7.68;3.90;;;;;;;16.12;100.00;99341.91;4444210;32;20092;-74
2022/06/18 04:35:26;;;;;;;11.07;3.75;;;;;;;16.20;100.00;99349.47;4458122;32;20174;-73
2022/06/18 04:37:52;;;;;;;5.18;4.00;;;;;;;16.23;100.00;99354.34;4458100;32;20462;-72
2022/06/18 04:40:28;;;;;;;11.25;3.58;;;;;;;16.40;100.00;99347.72;4457995;32;20156;-73
2022/06/18 04:42:54;;;;;;;11.35;4.60;;;;;;;16.45;100.00;99350.41;4458198;32;20053;-73
2022/06/18 04:45:20;;;;;;;5.18;3.78;;;;;;;16.52;100.00;99342.78;4444978;32;20050;-74
2022/06/18 04:47:46;;;;;;;12.45;3.92;;;;;;;16.64;100.00;99335.09;4444593;32;20117;-72
2022/06/18 04:50:18;;;;;;;3.22;2.85;;;;;;;16.60;100.00;99315.00;4456568;32;20320;-73
2022/06/18 04:52:44;;;;;;;14.77;3.95;;;;;;;16.96;100.00;99338.41;4459458;32;20086;-72
2022/06/18 04:55:10;;;;;;;9.82;3.50;;;;;;;17.04;100.00;99341.34;4461763;32;20044;-73
2022/06/18 04:57:36;;;;;;;13.15;3.72;;;;;;;16.93;100.00;99300.91;4455455;32;20066;-73
2022/06/18 05:00:06;;;;;;;6.50;3.60;;;;;;;17.27;100.00;99332.72;4445032;32;20450;-74
2022/06/18 05:02:35;;;;;;;8.68;3.28;;;;;;;17.24;100.00;99317.75;4447111;32;20058;-73
2022/06/18 05:05:06;;;;;;;7.95;3.10;;;;;;;17.46;100.00;99340.97;4451271;32;20113;-72
2022/06/18 05:07:33;;;;;;;12.10;3.90;;;;;;;17.54;100.00;99337.63;4461375;32;20037;-73
2022/06/18 05:09:59;;;;;;;6.62;4.32;;;;;;;17.60;100.00;99344.63;4459673;32;20140;-74
2022/06/18 05:12:25;;;;;;;7.05;2.92;;;;;;;17.74;100.00;99342.84;4460608;32;20090;-73
2022/06/18 05:14:52;;;;;;;13.07;3.78;;;;;;;17.83;100.00;99331.31;4448946;32;20812;-73
2022/06/18 05:17:23;;;;;;;6.43;3.78;;;;;;;17.79;100.00;99301.94;4447949;32;20356;-72
2022/06/18 05:19:50;;;;;;;4.78;3.03;;;;;;;18.04;100.00;99324.53;4448693;32;20057;-75
2022/06/18 05:22:17;;;;;;;9.13;3.10;;;;;;;17.99;100.00;99294.63;4448492;32;20062;-73
2022/06/18 05:24:43;;;;;;;12.23;3.58;;;;;;;18.28;100.00;99326.41;4447974;32;20080;-72
2022/06/18 05:27:22;;;;;;;5.00;2.72;;;;;;;18.08;100.00;99287.44;4444726;32;20072;-73
2022/06/18 05:29:48;;;;;;;4.97;3.20;;;;;;;18.39;100.00;99325.16;4447113;32;20405;-73
2022/06/18 05:32:15;;;;;;;8.35;3.20;;;;;;;18.37;100.00;99300.13;4446347;32;20053;-74
2022/06/18 05:34:41;;;;;;;19.08;5.72;;;;;;;18.63;100.00;99327.78;4567190;27;20460;-72
2022/06/18 05:37:15;;;;;;;9.05;4.62;;;;;;;18.72;100.00;99327.94;4415256;32;20069;-73
2022/06/18 05:39:42;;;;;;;4.18;3.22;;;;;;;18.69;100.00;99317.63;4416529;32;20033;-73
2022/06/18 05:42:08;;;;;;;6.93;3.87;;;;;;;18.38;100.00;99285.37;4417784;32;20080;-73
2022/06/18 05:44:34;;;;;;;6.53;3.53;;;;;;;18.75;100.00;99321.91;4415964;32;20054;-73
2022/06/18 05:47:11;;;;;;;7.28;3.55;;;;;;;18.89;100.00;99330.19;4415743;32;20103;-72
2022/06/18 05:49:43;;;;;;;7.15;3.22;;;;;;;19.00;100.00;99330.81;4418573;32;20090;-72
2022/06/18 05:52:10;;;;;;;6.12;3.47;;;;;;;19.01;100.00;99318.78;4416933;32;20086;-72
2022/06/18 05:54:36;;;;;;;4.70;3.45;;;;;;;18.98;100.00;99328.38;4402922;32;20139;-73
2022/06/18 05:57:03;;;;;;;14.60;4.65;;;;;;;19.00;100.00;99323.44;4416424;32;20050;-73
2022/06/18 05:59:30;;;;;;;8.38;3.40;;;;;;;18.93;100.00;99338.56;4417661;32;20458;-73
2022/06/18 06:01:56;;;;;;;5.00;3.53;;;;;;;18.94;100.00;99337.44;4417310;32;20552;-73
2022/06/18 06:04:24;;;;;;;6.57;3.30;;;;;;;19.10;100.00;99332.56;4416196;32;20486;-74
2022/06/18 06:06:52;;;;;;;6.80;2.95;;;;;;;18.88;100.00;99299.34;4427309;32;20454;-73
2022/06/18 06:12:05;;;;;;;11.05;2.72;;;;;;;19.22;100.00;99330.97;4406125;32;20038;-72
2022/06/18 06:14:30;;;;;;;3.08;2.80;;;;;;;19.29;100.00;99325.13;4406940;32;20109;-72
2022/06/18 06:16:57;;;;;;;11.85;3.00;;;;;;;19.26;100.00;99292.16;4415465;32;20091;-72
2022/06/18 06:19:24;;;;;;;4.60;3.17;;;;;;;19.59;100.00;99304.66;4417114;32;20095;-72
2022/06/18 06:21:50;;;;;;;4.28;3.12;;;;;;;19.69;100.00;99309.09;4416206;32;20093;-72
2022/06/18 06:24:16;;;;;;;3.72;2.72;;;;;;;19.54;100.00;99282.06;4417302;32;20057;-72
2022/06/18 06:26:42;;;;;;;3.15;2.95;;;;;;;19.65;100.00;99310.81;4406657;32;20113;-72
2022/06/18 06:29:11;;;;;;;4.35;2.55;;;;;;;19.51;100.00;99283.47;4413689;32;20061;-71
2022/06/18 06:31:36;;;;;;;4.15;2.60;;;;;;;19.83;100.00;99311.84;4412974;32;20403;-72
2022/06/18 06:34:03;;;;;;;4.05;3.10;;;;;;;19.81;100.00;99303.16;4415705;32;20065;-73
2022/06/18 06:36:28;;;;;;;11.00;3.50;;;;;;;19.71;100.00;99270.56;4414976;32;20038;-73
2022/06/18 06:38:54;;;;;;;4.07;2.92;;;;;;;20.14;100.00;99306.53;4414438;32;20136;-73
2022/06/18 06:41:27;;;;;;;7.97;2.67;;;;;;;19.96;100.00;99294.63;4414324;32;20046;-74
2022/06/18 06:43:52;;;;;;;5.87;3.00;;;;;;;20.03;100.00;99296.16;4414976;32;20069;-72
2022/06/18 06:46:18;;;;;;;11.23;3.53;;;;;;;20.02;100.00;99270.72;4415369;32;20372;-72
2022/06/18 06:48:45;;;;;;;3.00;2.42;;;;;;;20.40;100.00;99299.72;4413682;32;20054;-74
2022/06/18 06:51:19;;;;;;;4.93;3.00;;;;;;;20.24;100.00;99291.84;4399200;32;20077;-73
2022/06/18 06:53:45;;;;;;;3.08;2.83;;;;;;;20.18;100.00;99248.53;4411195;32;20086;-73
2022/06/18 06:58:58;;;;;;;8.88;2.65;;;;;;;20.74;100.00;99293.75;4403399;32;20080;-73
2022/06/18 07:01:25;;;;;;;2.42;2.22;;;;;;;20.66;100.00;99248.78;4404629;32;20090;-73
2022/06/18 07:03:51;;;;;;;12.32;2.47;;;;;;;20.81;100.00;99290.56;4411818;32;20129;-72
2022/06/18 07:06:17;;;;;;;4.78;2.37;;;;;;;20.96;100.00;99287.44;4406480;32;20059;-70
2022/06/18 07:08:44;;;;;;;3.08;2.53;;;;;;;20.96;100.00;99254.59;4407941;32;20364;-73
2022/06/18 07:11:11;;;;;;;14.65;2.22;;;;;;;21.22;100.00;99284.84;4416156;32;20046;-73
2022/06/18 07:13:37;;;;;;;2.55;1.77;;;;;;;21.35;100.00;99288.62;4416124;32;20085;-73
2022/06/18 07:16:06;;;;;;;5.03;2.35;;;;;;;21.46;100.00;99288.34;4415341;32;20416;-74
2022/06/18 07:18:35;;;;;;;2.72;2.53;;;;;;;21.32;100.00;99288.47;4413521;32;20042;-73
2022/06/18 07:21:04;;;;;;;5.53;2.00;;;;;;;21.47;100.00;99277.06;4416072;32;20078;-71
2022/06/18 07:23:30;;;;;;;5.97;1.83;;;;;;;21.69;100.00;99284.44;4416477;32;20089;-72
2022/06/18 07:25:56;;;;;;;2.58;1.85;;;;;;;21.78;100.00;99284.47;4412637;32;20069;-73
2022/06/18 07:28:22;;;;;;;3.10;2.05;;;;;;;21.79;100.00;99288.00;4416125;32;20156;-72
2022/06/18 07:30:48;;;;;;;2.10;1.85;;;;;;;21.84;100.00;99293.34;4413329;32;20042;-73
2022/06/18 07:33:21;;;;;;;5.18;2.30;;;;;;;21.71;100.00;99295.06;4416011;32;20058;-72
2022/06/18 07:35:48;;;;;;;2.50;2.30;;;;;;;21.66;100.00;99287.81;4414423;32;20117;-73
2022/06/18 07:38:14;;;;;;;6.18;1.80;;;;;;;21.77;100.00;99261.72;4415886;32;20038;-73
2022/06/18 07:40:44;;;;;;;2.28;2.05;;;;;;;21.92;100.00;99290.63;4411195;32;20099;-72
2022/06/18 07:43:16;;;;;;;2.47;2.00;;;;;;;21.89;100.00;99276.75;4415553;32;20062;-73
2022/06/18 07:45:44;;;;;;;4.57;1.92;;;;;;;21.95;100.00;99283.69;4400048;32;20444;-73
2022/06/18 07:48:11;;;;;;;3.33;1.77;;;;;;;21.74;100.00;99251.38;4411444;32;20306;-73
2022/06/18 07:50:46;;;;;;;2.00;1.90;;;;;;;21.76;100.00;99281.22;4414705;32;20049;-72
2022/06/18 07:53:17;;;;;;;1.83;1.62;;;;;;;21.96;100.00;99282.56;4408048;32;20156;-72
2022/06/18 07:55:43;;;;;;;11.10;2.87;;;;;;;21.86;100.00;99249.97;4415574;32;20130;-72
2022/06/18 07:58:09;;;;;;;4.87;2.65;;;;;;;22.31;100.00;99274.41;4413921;32;20436;-72
2022/06/18 08:00:39;;;;;;;1.87;1.75;;;;;;;22.05;100.00;99239.53;4414638;32;20100;-71
2022/06/18 08:03:07;;;;;;;13.20;2.05;;;;;;;22.17;100.00;99229.88;4414841;32;20050;-71
2022/06/18 08:05:33;;;;;;;11.57;1.92;;;;;;;22.45;100.00;99272.31;4415760;32;20138;-72
2022/06/18 08:07:59;;;;;;;6.00;1.60;;;;;;;22.21;100.00;99252.75;4414392;32;20505;-73
2022/06/18 08:10:25;;;;;;;5.22;2.37;;;;;;;22.40;100.00;99271.66;4414532;32;20042;-72
2022/06/18 08:12:51;;;;;;;9.05;2.40;;;;;;;22.54;100.00;99260.53;4409670;32;20063;-72
2022/06/18 08:15:18;;;;;;;1.83;1.70;;;;;;;22.39;100.00;99243.44;4411126;32;20430;-71
2022/06/18 08:17:44;;;;;;;5.28;1.80;;;;;;;22.32;100.00;99273.28;4401588;32;20065;-72
2022/06/18 08:20:11;;;;;;;4.78;1.62;;;;;;;22.21;100.00;99280.19;4415324;32;20455;-73
2022/06/18 08:22:40;;;;;;;4.68;1.37;;;;;;;21.90;100.00;99254.50;4413580;32;20097;-72
2022/06/18 08:25:07;;;;;;;1.83;1.58;;;;;;;21.82;100.00;99241.59;4409357;32;20152;-73
2022/06/18 08:27:34;;;;;;;3.28;1.85;;;;;;;22.04;100.00;99279.03;4412548;32;20098;-70
2022/06/18 08:30:00;;;;;;;4.00;2.65;;;;;;;22.14;100.00;99281.44;4409695;32;20151;-70
2022/06/18 08:32:26;;;;;;;12.10;2.17;;;;;;;22.56;100.00;99280.22;4409333;32;20122;-71
2022/06/18 08:34:52;;;;;;;3.92;1.90;;;;;;;22.42;100.00;99248.28;4413209;32;20047;-72
2022/06/18 08:37:18;;;;;;;2.15;2.03;;;;;;;22.59;100.00;99268.59;4421138;32;20466;-72
2022/06/18 08:39:44;;;;;;;7.97;2.28;;;;;;;22.59;100.00;99274.09;4413730;32;20086;-71
2022/06/18 08:42:19;;;;;;;5.12;1.83;;;;;;;22.00;100.00;99264.34;4414493;32;20440;-71
2022/06/18 08:45:13;;;;;;;7.65;4.00;;;;;;;22.02;100.00;99273.06;4413268;32;20046;-72
2022/06/18 08:47:54;;;;;;;2.45;2.05;;;;;;;22.06;100.00;99279.50;4409889;32;20232;-72
2022/06/18 08:50:41;;;;;;;5.57;1.95;;;;;;;22.18;100.00;99261.63;4411634;32;20101;-71
2022/06/18 08:53:26;;;;;;;2.80;1.92;;;;;;;22.40;100.00;99260.69;4414724;32;20376;-72
2022/06/18 08:56:08;;;;;;;7.28;2.10;;;;;;;22.13;100.00;99214.06;4412705;32;20107;-72
2022/06/18 08:59:11;;;;;;;2.00;1.85;;;;;;;22.31;100.00;99241.50;4413619;32;20458;-71
2022/06/18 09:01:42;;;;;;;5.12;2.28;;;;;;;22.18;100.00;99218.56;4415268;32;20042;-72
2022/06/18 09:04:28;;;;;;;2.85;1.87;;;;;;;22.36;100.00;99233.09;4407589;32;20058;-72
2022/06/18 09:07:12;;;;;;;2.35;1.58;;;;;;;22.79;100.00;99280.84;4413574;32;20050;-72
2022/06/18 09:10:09;;;;;;;1.75;1.65;;;;;;;22.52;100.00;99263.59;4411908;32;20394;-72
2022/06/18 09:12:44;;;;;;;3.80;1.95;;;;;;;22.23;100.00;99228.56;4410704;32;20062;-72
2022/06/18 09:15:22;;;;;;;6.12;1.48;;;;;;;22.60;100.00;99259.25;4415048;32;20066;-72
2022/06/18 09:18:04;;;;;;;5.32;2.08;;;;;;;22.89;100.00;99252.25;4406482;32;20115;-72
2022/06/18 09:20:39;;;;;;;5.35;1.40;;;;;;;22.82;100.00;99228.84;4414006;32;20097;-72
2022/06/18 09:23:15;;;;;;;3.22;1.70;;;;;;;22.70;100.00;99192.22;4407661;32;20085;-71
2022/06/18 09:25:47;;;;;;;4.32;1.80;;;;;;;22.79;100.00;99207.53;4413585;32;20046;-72
2022/06/18 09:28:55;;;;;;;6.25;1.73;;;;;;;22.90;100.00;99229.97;4413757;32;20053;-70
2022/06/18 09:31:40;;;;;;;2.05;1.30;;;;;;;23.16;100.00;99227.16;4368165;32;20357;-68
2022/06/18 09:34:16;;;;;;;2.40;1.37;;;;;;;22.96;100.00;99216.84;4413547;32;20098;-68
2022/06/18 09:36:46;;;;;;;3.17;1.50;;;;;;;23.06;100.00;99237.69;4410527;32;20065;-68
2022/06/18 09:39:39;;;;;;;3.58;1.92;;;;;;;23.07;100.00;99207.16;4414394;32;20084;-68
2022/06/18 09:42:22;;;;;;;1.48;1.37;;;;;;;23.21;100.00;99223.41;4409846;32;20371;-71
2022/06/18 09:44:55;;;;;;;1.58;1.48;;;;;;;23.23;100.00;99220.34;4408719;32;20141;-68
2022/06/18 09:47:28;;;;;;;1.50;1.42;;;;;;;23.20;100.00;99211.66;4403615;32;20039;-68
2022/06/18 09:49:54;;;;;;;7.03;1.83;;;;;;;23.26;100.00;99208.69;4412976;32;20042;-69
2022/06/18 09:52:34;;;;;;;1.20;1.20;;;;;;;23.23;100.00;99187.38;4413881;32;20038;-70
2022/06/18 09:55:09;;;;;;;2.40;1.60;;;;;;;23.34;100.00;99203.19;4406410;32;20114;-69
2022/06/18 09:57:41;;;;;;;1.55;1.45;;;;;;;23.51;100.00;99199.53;4405176;32;20069;-68
2022/06/18 10:00:13;;;;;;;1.70;1.60;;;;;;;23.43;100.00;99180.34;4398191;32;20414;-69
2022/06/18 10:02:54;;;;;;;4.70;1.45;;;;;;;23.75;100.00;99198.09;4408827;32;20039;-68
2022/06/18 10:08:14;;;;;;;1.45;1.25;;;;;;;23.52;100.00;99203.88;4403509;32;20047;-69
2022/06/18 10:10:47;;;;;;;3.33;1.40;;;;;;;23.64;100.00;99194.13;4404806;32;20050;-69
2022/06/18 10:13:24;;;;;;;5.65;1.42;;;;;;;23.38;100.00;99162.13;4408740;32;20042;-70
2022/06/18 10:15:52;;;;;;;3.35;1.37;;;;;;;23.81;100.00;99185.75;4417006;32;20058;-67
2022/06/18 10:18:40;;;;;;;4.37;1.27;;;;;;;24.15;100.00;99194.91;4415619;32;20143;-69
2022/06/18 10:21:28;;;;;;;2.35;1.52;;;;;;;24.19;97.50;99190.34;4411729;32;20038;-69
2022/06/18 10:24:06;;;;;;;2.58;1.40;;;;;;;23.79;94.44;99177.06;4400581;32;20066;-70
2022/06/18 10:26:38;;;;;;;2.12;1.70;;;;;;;24.14;94.39;99174.06;4401802;32;20136;-69
2022/06/18 10:29:27;;;;;;;1.40;1.30;;;;;;;23.85;93.81;99131.72;4417494;32;20042;-68
2022/06/18 10:32:03;;;;;;;2.58;1.25;;;;;;;24.28;91.54;99160.00;4415199;32;20050;-69
2022/06/18 10:35:01;;;;;;;2.90;1.48;;;;;;;24.32;94.88;99143.62;4414803;32;20150;-69
2022/06/18 10:37:48;;;;;;;4.97;1.37;;;;;;;24.14;93.92;99105.28;4414852;32;20062;-72
2022/06/18 10:40:20;;;;;;;2.60;1.87;;;;;;;24.14;88.03;99149.31;4414461;32;20050;-69
2022/06/18 10:43:05;;;;;;;3.05;1.40;;;;;;;23.93;86.68;99117.13;4414075;32;20432;-69
2022/06/18 10:45:47;;;;;;;3.22;2.30;;;;;;;24.39;90.14;99149.38;4414170;32;20188;-70
2022/06/18 10:48:18;;;;;;;3.08;1.25;;;;;;;24.73;83.78;99111.63;4414143;32;20054;-69
2022/06/18 10:50:53;;;;;;;3.33;1.50;;;;;;;24.63;76.74;99088.91;4416600;32;20129;-74
2022/06/18 10:53:23;;;;;;;2.42;1.20;;;;;;;24.75;79.90;99112.13;4403445;32;20146;-70
2022/06/18 10:56:12;;;;;;;9.95;2.05;;;;;;;24.80;82.25;99150.44;4415673;32;20408;-69
2022/06/18 10:58:51;;;;;;;2.37;1.60;;;;;;;24.90;83.32;99125.19;4413176;32;20060;-71
2022/06/18 11:01:25;;;;;;;2.42;1.37;;;;;;;24.80;76.99;99098.12;4416753;32;20156;-70
2022/06/18 11:03:54;;;;;;;1.60;1.50;;;;;;;25.40;72.79;99133.47;4415849;32;20038;-69
2022/06/18 11:06:20;;;;;;;9.93;1.65;;;;;;;25.90;68.97;99126.69;4416547;32;20114;-69
2022/06/18 11:08:53;;;;;;;3.28;1.70;;;;;;;26.37;69.82;99123.28;4413595;32;20413;-70
2022/06/18 11:11:26;;;;;;;4.12;1.33;;;;;;;26.05;65.55;99105.88;4416672;32;20438;-68
2022/06/18 11:13:52;;;;;;;3.15;1.73;;;;;;;25.74;66.81;99141.22;4416597;32;20062;-69
2022/06/18 11:16:22;;;;;;;4.32;1.45;;;;;;;25.69;67.71;99127.69;4417230;32;20039;-69
2022/06/18 11:19:06;;;;;;;3.57;2.10;;;;;;;25.89;71.09;99136.12;4415162;32;20127;-69
2022/06/18 11:21:39;;;;;;;1.70;1.60;;;;;;;25.99;70.82;99127.41;4416982;32;20060;-68
2022/06/18 11:24:11;;;;;;;3.42;2.10;;;;;;;26.66;71.51;99118.53;4415986;32;20046;-68
2022/06/18 11:26:43;;;;;;;1.95;1.85;;;;;;;26.82;58.47;99130.41;4413173;32;20034;-68
2022/06/18 11:29:20;;;;;;;6.43;2.80;;;;;;;27.13;56.57;99150.88;4415677;32;20054;-68
2022/06/18 11:31:52;;;;;;;5.68;1.40;;;;;;;27.00;55.66;99143.88;4417131;32;20122;-68
2022/06/18 11:34:32;;;;;;;1.87;1.60;;;;;;;26.54;59.30;99126.91;4416108;32;20088;-72
2022/06/18 11:36:59;;;;;;;;;;;;;;;26.42;62.66;99120.28;4417225;32;20046;-69
2022/06/18 11:39:35;;;;;;;14.50;2.17;;;;;;;26.45;62.40;99125.09;4416744;32;19938;-69
2022/06/18 11:42:04;;;;;;;2.17;1.90;;;;;;;26.31;64.81;99099.06;4416290;32;20387;-69
2022/06/18 11:44:57;;;;;;;3.15;1.20;;;;;;;26.72;65.38;99111.59;4399589;32;20046;-69
2022/06/18 11:47:28;;;;;;;2.22;1.90;;;;;;;26.70;63.60;99108.41;4416656;32;20379;-69
2022/06/18 11:50:01;;;;;;;2.15;2.00;;;;;;;26.87;55.15;99110.00;4413788;32;20094;-73
2022/06/18 11:52:39;;;;;;;7.97;1.70;;;;;;;26.35;62.63;99092.47;4416642;32;20121;-69
2022/06/18 11:55:29;;;;;;;4.07;2.05;;;;;;;26.10;62.59;99053.19;4415970;32;20470;-69
2022/06/18 11:58:40;;;;;;;5.55;2.20;;;;;;;27.00;55.72;99091.38;4400256;32;20088;-69
2022/06/18 12:01:42;;;;;;;3.00;2.60;;;;;;;27.03;56.72;99082.38;4366967;32;20067;-71